< Typhoon 200315 2003 Season Typhoon 200317 >
Typhoon 200316 (KOPPU)
General InformationTrack Information on Google MapsDetailed Wind InformationAccess Analytics MapList of All Images || NewsDisaster Info.WeblogResourceGoogle EarthGE AnimationAtom FeedGeoJSON
Detalied Best Track (Time Zone = UTC)
Year Month Day Hour Lat. Long. Pressure (hPa) Wind (kt) Class Image Chart
2003 9 24 00 15.8 140.5 1006 0 2 Image Chart
2003 9 24 06 16.3 138.8 1004 0 2 Image Chart
2003 9 24 12 16.3 137.5 1002 0 2 Image Chart
2003 9 24 18 16.3 136.8 1002 0 2 Image Chart
2003 9 25 00 16.0 136.1 1000 0 2 Image Chart
2003 9 25 06 16.3 136.0 998 0 2 Image Chart
2003 9 25 12 16.5 136.0 998 0 2 Image Chart
2003 9 25 18 16.6 136.0 996 0 2 Image Chart
2003 9 26 00 16.8 136.3 996 0 2 Image Chart
2003 9 26 06 18.1 136.8 998 0 2 Image Chart
2003 9 26 12 19.0 137.5 998 0 2 Image Chart
2003 9 26 18 20.4 138.6 992 35 3 Image Chart
2003 9 27 00 21.5 139.3 985 40 3 Image Chart
2003 9 27 06 22.5 139.4 980 50 4 Image Chart
2003 9 27 12 23.1 139.5 980 50 4 Image Chart
2003 9 27 18 24.0 139.9 975 55 4 Image Chart
2003 9 28 00 24.7 140.8 975 55 4 Image Chart
2003 9 28 06 25.4 140.6 975 60 4 Image Chart
2003 9 28 09 25.8 140.5 970 60 4 Image Chart
2003 9 28 12 26.1 140.5 970 60 4 Image Chart
2003 9 28 15 26.4 140.5 970 60 4 Image Chart
2003 9 28 18 26.7 140.7 970 60 4 Image Chart
2003 9 28 21 27.0 141.0 970 60 4 Image Chart
2003 9 29 00 27.3 141.2 965 65 5 Image Chart
2003 9 29 03 27.7 141.5 965 65 5 Image Chart
2003 9 29 06 28.3 141.9 960 70 5 Image Chart
2003 9 29 12 29.5 142.9 965 65 5 Image Chart
2003 9 29 18 30.6 144.3 965 65 5 Image Chart
2003 9 30 00 32.8 147.0 970 60 4 Image Chart
2003 9 30 06 35.6 150.7 976 0 6 Image Chart
2003 9 30 12 40.7 153.1 972 0 6 Image Chart
2003 9 30 18 43.2 153.8 968 0 6 Image Chart
2003 10 1 00 44.5 156.4 972 0 6 Image Chart
2003 10 1 06 46.3 158.3 976 0 6 Image Chart
2003 10 1 12 47.1 160.9 976 0 6 Image Chart
2003 10 1 18 47.6 163.8 976 0 6 Image Chart
2003 10 2 00 48.3 166.6 976 0 6 Image Chart
2003 10 2 06 48.5 169.1 976 0 6 Image Chart
2003 10 2 12 49.1 171.4 978 0 6 Image Chart
2003 10 2 18 48.5 173.5 980 0 6 Image Chart
2003 10 3 00 48.5 176.4 980 0 6 Image Chart
2003 10 3 06 48.2 179.6 980 0 6 Image Chart
2003 10 3 12 48.5 181.3 984 0 6 Image Chart
Japan Meteorological Agency Best Track Data | Correction Date : 2004-02-17
< Typhoon 200315 2003 Season Typhoon 200317 >

Help